sensor_id;sensor_type;location;lat;lon;timestamp;P1;durP1;ratioP1;P2;durP2;ratioP2
55312;SDS011;46892;45.668;11.756;2023-11-19T00:00:25;26.73;;;16.13;;
55312;SDS011;46892;45.668;11.756;2023-11-19T00:02:51;23.93;;;14.60;;
55312;SDS011;46892;45.668;11.756;2023-11-19T00:05:17;26.27;;;15.20;;
55312;SDS011;46892;45.668;11.756;2023-11-19T00:07:43;27.50;;;15.00;;
55312;SDS011;46892;45.668;11.756;2023-11-19T00:12:36;24.33;;;14.77;;
55312;SDS011;46892;45.668;11.756;2023-11-19T00:15:03;23.63;;;14.63;;
55312;SDS011;46892;45.668;11.756;2023-11-19T00:17:29;25.77;;;14.57;;
55312;SDS011;46892;45.668;11.756;2023-11-19T00:19:55;23.50;;;14.33;;
55312;SDS011;46892;45.668;11.756;2023-11-19T00:22:21;22.43;;;12.77;;
55312;SDS011;46892;45.668;11.756;2023-11-19T00:24:47;20.67;;;13.03;;
55312;SDS011;46892;45.668;11.756;2023-11-19T00:27:13;23.23;;;12.83;;
55312;SDS011;46892;45.668;11.756;2023-11-19T00:29:39;22.10;;;13.23;;
55312;SDS011;46892;45.668;11.756;2023-11-19T00:32:05;25.00;;;12.80;;
55312;SDS011;46892;45.668;11.756;2023-11-19T00:34:32;22.60;;;13.57;;
55312;SDS011;46892;45.668;11.756;2023-11-19T00:36:58;23.60;;;14.03;;
55312;SDS011;46892;45.668;11.756;2023-11-19T00:39:24;20.40;;;13.10;;
55312;SDS011;46892;45.668;11.756;2023-11-19T00:41:50;23.37;;;14.57;;
55312;SDS011;46892;45.668;11.756;2023-11-19T00:44:15;22.43;;;13.20;;
55312;SDS011;46892;45.668;11.756;2023-11-19T00:46:41;19.60;;;12.57;;
55312;SDS011;46892;45.668;11.756;2023-11-19T00:49:07;19.93;;;12.13;;
55312;SDS011;46892;45.668;11.756;2023-11-19T00:51:32;20.30;;;12.93;;
55312;SDS011;46892;45.668;11.756;2023-11-19T00:53:59;20.70;;;12.30;;
55312;SDS011;46892;45.668;11.756;2023-11-19T00:56:26;22.63;;;13.30;;
55312;SDS011;46892;45.668;11.756;2023-11-19T00:58:53;24.13;;;12.97;;
55312;SDS011;46892;45.668;11.756;2023-11-19T01:01:19;19.87;;;12.40;;
55312;SDS011;46892;45.668;11.756;2023-11-19T01:03:44;19.10;;;12.03;;
55312;SDS011;46892;45.668;11.756;2023-11-19T01:06:10;18.03;;;11.70;;
55312;SDS011;46892;45.668;11.756;2023-11-19T01:08:36;18.77;;;11.63;;
55312;SDS011;46892;45.668;11.756;2023-11-19T01:11:02;19.07;;;12.03;;
55312;SDS011;46892;45.668;11.756;2023-11-19T01:13:27;18.67;;;12.17;;
55312;SDS011;46892;45.668;11.756;2023-11-19T01:15:54;19.13;;;12.07;;
55312;SDS011;46892;45.668;11.756;2023-11-19T01:18:21;19.67;;;13.23;;
55312;SDS011;46892;45.668;11.756;2023-11-19T01:20:47;18.67;;;13.10;;
55312;SDS011;46892;45.668;11.756;2023-11-19T01:23:13;19.90;;;12.83;;
55312;SDS011;46892;45.668;11.756;2023-11-19T01:25:38;22.20;;;13.93;;
55312;SDS011;46892;45.668;11.756;2023-11-19T01:28:04;17.53;;;12.63;;
55312;SDS011;46892;45.668;11.756;2023-11-19T01:30:30;19.87;;;13.40;;
55312;SDS011;46892;45.668;11.756;2023-11-19T01:32:56;25.23;;;14.00;;
55312;SDS011;46892;45.668;11.756;2023-11-19T01:35:21;20.43;;;13.00;;
55312;SDS011;46892;45.668;11.756;2023-11-19T01:37:48;21.13;;;13.50;;
55312;SDS011;46892;45.668;11.756;2023-11-19T01:40:19;22.83;;;12.83;;
55312;SDS011;46892;45.668;11.756;2023-11-19T01:42:45;13.93;;;9.07;;
55312;SDS011;46892;45.668;11.756;2023-11-19T01:45:13;21.67;;;12.30;;
55312;SDS011;46892;45.668;11.756;2023-11-19T01:47:56;18.00;;;12.43;;
55312;SDS011;46892;45.668;11.756;2023-11-19T01:50:23;17.00;;;11.13;;
55312;SDS011;46892;45.668;11.756;2023-11-19T01:52:50;19.07;;;11.43;;
55312;SDS011;46892;45.668;11.756;2023-11-19T01:55:18;19.00;;;11.23;;
55312;SDS011;46892;45.668;11.756;2023-11-19T01:57:49;20.47;;;11.43;;
55312;SDS011;46892;45.668;11.756;2023-11-19T02:00:16;21.23;;;12.43;;
55312;SDS011;46892;45.668;11.756;2023-11-19T02:02:44;21.63;;;12.90;;
55312;SDS011;46892;45.668;11.756;2023-11-19T02:05:14;19.02;;;11.88;;
55312;SDS011;46892;45.668;11.756;2023-11-19T02:07:40;17.93;;;11.07;;
55312;SDS011;46892;45.668;11.756;2023-11-19T02:10:06;16.87;;;11.50;;
55312;SDS011;46892;45.668;11.756;2023-11-19T02:12:33;14.70;;;10.47;;
55312;SDS011;46892;45.668;11.756;2023-11-19T02:14:59;17.07;;;11.30;;
55312;SDS011;46892;45.668;11.756;2023-11-19T02:17:26;16.47;;;10.80;;
55312;SDS011;46892;45.668;11.756;2023-11-19T02:19:52;16.00;;;10.50;;
55312;SDS011;46892;45.668;11.756;2023-11-19T02:22:18;18.47;;;10.53;;
55312;SDS011;46892;45.668;11.756;2023-11-19T02:24:45;17.17;;;11.00;;
55312;SDS011;46892;45.668;11.756;2023-11-19T02:27:16;15.83;;;10.70;;
55312;SDS011;46892;45.668;11.756;2023-11-19T02:30:14;16.73;;;10.17;;
55312;SDS011;46892;45.668;11.756;2023-11-19T02:32:43;16.00;;;10.53;;
55312;SDS011;46892;45.668;11.756;2023-11-19T02:35:08;15.07;;;9.97;;
55312;SDS011;46892;45.668;11.756;2023-11-19T02:37:34;15.50;;;9.97;;
55312;SDS011;46892;45.668;11.756;2023-11-19T02:40:00;13.73;;;9.37;;
55312;SDS011;46892;45.668;11.756;2023-11-19T02:42:28;13.77;;;9.17;;
55312;SDS011;46892;45.668;11.756;2023-11-19T02:44:54;13.87;;;9.27;;
55312;SDS011;46892;45.668;11.756;2023-11-19T02:47:19;15.10;;;9.53;;
55312;SDS011;46892;45.668;11.756;2023-11-19T02:49:46;13.77;;;8.27;;
55312;SDS011;46892;45.668;11.756;2023-11-19T02:52:13;14.33;;;8.80;;
55312;SDS011;46892;45.668;11.756;2023-11-19T02:54:39;15.13;;;9.00;;
55312;SDS011;46892;45.668;11.756;2023-11-19T02:57:06;13.83;;;8.97;;
55312;SDS011;46892;45.668;11.756;2023-11-19T02:59:35;13.37;;;8.07;;
55312;SDS011;46892;45.668;11.756;2023-11-19T03:02:06;14.00;;;8.30;;
55312;SDS011;46892;45.668;11.756;2023-11-19T03:04:36;15.27;;;8.63;;
55312;SDS011;46892;45.668;11.756;2023-11-19T03:07:07;13.13;;;8.57;;
55312;SDS011;46892;45.668;11.756;2023-11-19T03:09:33;13.43;;;8.13;;
55312;SDS011;46892;45.668;11.756;2023-11-19T03:12:05;13.23;;;8.10;;
55312;SDS011;46892;45.668;11.756;2023-11-19T03:14:33;13.73;;;8.97;;
55312;SDS011;46892;45.668;11.756;2023-11-19T03:16:59;15.77;;;8.87;;
55312;SDS011;46892;45.668;11.756;2023-11-19T03:19:25;13.60;;;8.70;;
55312;SDS011;46892;45.668;11.756;2023-11-19T03:21:51;13.30;;;8.37;;
55312;SDS011;46892;45.668;11.756;2023-11-19T03:24:17;13.50;;;8.57;;
55312;SDS011;46892;45.668;11.756;2023-11-19T03:26:47;14.47;;;8.90;;
55312;SDS011;46892;45.668;11.756;2023-11-19T03:29:16;17.07;;;8.47;;
55312;SDS011;46892;45.668;11.756;2023-11-19T03:31:42;12.40;;;7.87;;
55312;SDS011;46892;45.668;11.756;2023-11-19T03:34:08;13.60;;;8.43;;
55312;SDS011;46892;45.668;11.756;2023-11-19T03:36:34;12.57;;;8.20;;
55312;SDS011;46892;45.668;11.756;2023-11-19T03:38:59;15.47;;;8.60;;
55312;SDS011;46892;45.668;11.756;2023-11-19T03:41:25;13.00;;;7.87;;
55312;SDS011;46892;45.668;11.756;2023-11-19T03:43:51;11.27;;;7.47;;
55312;SDS011;46892;45.668;11.756;2023-11-19T03:48:49;12.97;;;8.20;;
55312;SDS011;46892;45.668;11.756;2023-11-19T03:51:15;12.63;;;8.03;;
55312;SDS011;46892;45.668;11.756;2023-11-19T03:53:44;12.17;;;7.97;;
55312;SDS011;46892;45.668;11.756;2023-11-19T03:56:11;12.30;;;8.20;;
55312;SDS011;46892;45.668;11.756;2023-11-19T03:58:37;12.47;;;8.37;;
55312;SDS011;46892;45.668;11.756;2023-11-19T04:01:06;11.90;;;7.87;;
55312;SDS011;46892;45.668;11.756;2023-11-19T04:03:37;14.97;;;8.70;;
55312;SDS011;46892;45.668;11.756;2023-11-19T04:06:03;12.13;;;8.33;;
55312;SDS011;46892;45.668;11.756;2023-11-19T04:08:29;14.53;;;7.83;;
55312;SDS011;46892;45.668;11.756;2023-11-19T04:10:55;11.03;;;6.97;;
55312;SDS011;46892;45.668;11.756;2023-11-19T04:13:21;11.40;;;7.60;;
55312;SDS011;46892;45.668;11.756;2023-11-19T04:15:49;10.90;;;7.00;;
55312;SDS011;46892;45.668;11.756;2023-11-19T04:18:15;9.20;;;6.37;;
55312;SDS011;46892;45.668;11.756;2023-11-19T04:20:41;10.30;;;6.33;;
55312;SDS011;46892;45.668;11.756;2023-11-19T04:23:09;11.27;;;6.90;;
55312;SDS011;46892;45.668;11.756;2023-11-19T04:25:36;10.77;;;6.90;;
55312;SDS011;46892;45.668;11.756;2023-11-19T04:28:02;11.60;;;6.40;;
55312;SDS011;46892;45.668;11.756;2023-11-19T04:30:28;9.63;;;6.20;;
55312;SDS011;46892;45.668;11.756;2023-11-19T04:32:54;9.63;;;6.27;;
55312;SDS011;46892;45.668;11.756;2023-11-19T04:35:19;11.20;;;7.20;;
55312;SDS011;46892;45.668;11.756;2023-11-19T04:37:46;9.00;;;6.23;;
55312;SDS011;46892;45.668;11.756;2023-11-19T04:40:12;10.27;;;6.73;;
55312;SDS011;46892;45.668;11.756;2023-11-19T04:42:38;10.13;;;6.17;;
55312;SDS011;46892;45.668;11.756;2023-11-19T04:45:07;10.17;;;6.30;;
55312;SDS011;46892;45.668;11.756;2023-11-19T04:47:35;10.30;;;6.27;;
55312;SDS011;46892;45.668;11.756;2023-11-19T04:50:01;11.50;;;6.63;;
55312;SDS011;46892;45.668;11.756;2023-11-19T04:52:28;9.07;;;6.03;;
55312;SDS011;46892;45.668;11.756;2023-11-19T04:54:54;9.20;;;5.50;;
55312;SDS011;46892;45.668;11.756;2023-11-19T04:57:20;11.27;;;6.40;;
55312;SDS011;46892;45.668;11.756;2023-11-19T04:59:45;8.17;;;5.63;;
55312;SDS011;46892;45.668;11.756;2023-11-19T05:02:11;10.20;;;6.17;;
55312;SDS011;46892;45.668;11.756;2023-11-19T05:04:37;10.03;;;5.83;;
55312;SDS011;46892;45.668;11.756;2023-11-19T05:07:08;8.65;;;5.85;;
55312;SDS011;46892;45.668;11.756;2023-11-19T05:09:33;9.53;;;5.70;;
55312;SDS011;46892;45.668;11.756;2023-11-19T05:11:59;8.93;;;5.63;;
55312;SDS011;46892;45.668;11.756;2023-11-19T05:14:26;8.10;;;5.43;;
55312;SDS011;46892;45.668;11.756;2023-11-19T05:16:52;9.63;;;6.07;;
55312;SDS011;46892;45.668;11.756;2023-11-19T05:19:18;10.37;;;6.50;;
55312;SDS011;46892;45.668;11.756;2023-11-19T05:21:44;10.83;;;6.00;;
55312;SDS011;46892;45.668;11.756;2023-11-19T05:24:10;10.33;;;5.80;;
55312;SDS011;46892;45.668;11.756;2023-11-19T05:26:37;11.50;;;6.43;;
55312;SDS011;46892;45.668;11.756;2023-11-19T05:29:03;9.13;;;6.10;;
55312;SDS011;46892;45.668;11.756;2023-11-19T05:31:29;10.80;;;7.27;;
55312;SDS011;46892;45.668;11.756;2023-11-19T05:33:55;9.63;;;6.57;;
55312;SDS011;46892;45.668;11.756;2023-11-19T05:36:21;10.37;;;6.60;;
55312;SDS011;46892;45.668;11.756;2023-11-19T05:38:47;11.17;;;6.50;;
55312;SDS011;46892;45.668;11.756;2023-11-19T05:41:12;10.13;;;6.47;;
55312;SDS011;46892;45.668;11.756;2023-11-19T05:43:38;10.00;;;6.63;;
55312;SDS011;46892;45.668;11.756;2023-11-19T05:46:05;10.47;;;6.20;;
55312;SDS011;46892;45.668;11.756;2023-11-19T05:48:32;9.83;;;5.87;;
55312;SDS011;46892;45.668;11.756;2023-11-19T05:50:58;10.10;;;6.10;;
55312;SDS011;46892;45.668;11.756;2023-11-19T05:53:24;9.50;;;5.77;;
55312;SDS011;46892;45.668;11.756;2023-11-19T05:55:50;9.83;;;5.87;;
55312;SDS011;46892;45.668;11.756;2023-11-19T05:58:25;9.43;;;5.70;;
55312;SDS011;46892;45.668;11.756;2023-11-19T06:00:52;10.30;;;6.57;;
55312;SDS011;46892;45.668;11.756;2023-11-19T06:03:18;10.00;;;6.30;;
55312;SDS011;46892;45.668;11.756;2023-11-19T06:05:44;8.27;;;5.30;;
55312;SDS011;46892;45.668;11.756;2023-11-19T06:08:11;8.93;;;5.73;;
55312;SDS011;46892;45.668;11.756;2023-11-19T06:10:38;9.07;;;5.77;;
55312;SDS011;46892;45.668;11.756;2023-11-19T06:13:05;9.43;;;6.10;;
55312;SDS011;46892;45.668;11.756;2023-11-19T06:15:31;9.87;;;5.40;;
55312;SDS011;46892;45.668;11.756;2023-11-19T06:17:58;7.70;;;5.33;;
55312;SDS011;46892;45.668;11.756;2023-11-19T06:20:28;7.22;;;5.18;;
55312;SDS011;46892;45.668;11.756;2023-11-19T06:22:55;10.37;;;5.33;;
55312;SDS011;46892;45.668;11.756;2023-11-19T06:25:22;8.63;;;5.20;;
55312;SDS011;46892;45.668;11.756;2023-11-19T06:27:49;9.57;;;5.87;;
55312;SDS011;46892;45.668;11.756;2023-11-19T06:30:15;8.57;;;5.73;;
55312;SDS011;46892;45.668;11.756;2023-11-19T06:32:41;9.20;;;5.40;;
55312;SDS011;46892;45.668;11.756;2023-11-19T06:35:07;9.80;;;6.00;;
55312;SDS011;46892;45.668;11.756;2023-11-19T06:37:34;8.77;;;5.50;;
55312;SDS011;46892;45.668;11.756;2023-11-19T06:40:00;9.27;;;5.67;;
55312;SDS011;46892;45.668;11.756;2023-11-19T06:42:26;9.83;;;6.50;;
55312;SDS011;46892;45.668;11.756;2023-11-19T06:44:52;8.33;;;5.63;;
55312;SDS011;46892;45.668;11.756;2023-11-19T06:47:18;8.97;;;5.50;;
55312;SDS011;46892;45.668;11.756;2023-11-19T06:49:44;10.00;;;5.50;;
55312;SDS011;46892;45.668;11.756;2023-11-19T06:52:10;10.87;;;5.93;;
55312;SDS011;46892;45.668;11.756;2023-11-19T06:54:36;7.70;;;5.30;;
55312;SDS011;46892;45.668;11.756;2023-11-19T06:57:04;9.90;;;6.03;;
55312;SDS011;46892;45.668;11.756;2023-11-19T06:59:30;11.03;;;6.80;;
55312;SDS011;46892;45.668;11.756;2023-11-19T07:01:57;9.77;;;6.17;;
55312;SDS011;46892;45.668;11.756;2023-11-19T07:04:22;9.07;;;5.90;;
55312;SDS011;46892;45.668;11.756;2023-11-19T07:06:48;11.17;;;5.97;;
55312;SDS011;46892;45.668;11.756;2023-11-19T07:09:14;9.30;;;6.13;;
55312;SDS011;46892;45.668;11.756;2023-11-19T07:11:40;12.00;;;6.67;;
55312;SDS011;46892;45.668;11.756;2023-11-19T07:14:07;11.77;;;7.00;;
55312;SDS011;46892;45.668;11.756;2023-11-19T07:16:33;11.90;;;5.97;;
55312;SDS011;46892;45.668;11.756;2023-11-19T07:19:02;11.70;;;7.27;;
55312;SDS011;46892;45.668;11.756;2023-11-19T07:21:31;12.00;;;7.60;;
55312;SDS011;46892;45.668;11.756;2023-11-19T07:24:03;8.70;;;6.00;;
55312;SDS011;46892;45.668;11.756;2023-11-19T07:26:30;15.37;;;7.30;;
55312;SDS011;46892;45.668;11.756;2023-11-19T07:28:55;11.57;;;6.90;;
55312;SDS011;46892;45.668;11.756;2023-11-19T07:31:21;12.57;;;7.87;;
55312;SDS011;46892;45.668;11.756;2023-11-19T07:33:47;13.23;;;7.57;;
55312;SDS011;46892;45.668;11.756;2023-11-19T07:36:13;11.93;;;6.87;;
55312;SDS011;46892;45.668;11.756;2023-11-19T07:38:39;10.30;;;7.30;;
55312;SDS011;46892;45.668;11.756;2023-11-19T07:41:05;10.70;;;7.17;;
55312;SDS011;46892;45.668;11.756;2023-11-19T07:43:32;12.80;;;8.10;;
55312;SDS011;46892;45.668;11.756;2023-11-19T07:45:58;13.00;;;7.70;;
55312;SDS011;46892;45.668;11.756;2023-11-19T07:48:24;12.33;;;8.30;;
55312;SDS011;46892;45.668;11.756;2023-11-19T07:50:51;11.17;;;7.83;;
55312;SDS011;46892;45.668;11.756;2023-11-19T07:53:17;13.07;;;7.80;;
55312;SDS011;46892;45.668;11.756;2023-11-19T07:55:44;22.40;;;17.67;;
55312;SDS011;46892;45.668;11.756;2023-11-19T07:58:12;17.90;;;12.23;;
55312;SDS011;46892;45.668;11.756;2023-11-19T08:00:38;16.60;;;12.10;;
55312;SDS011;46892;45.668;11.756;2023-11-19T08:03:05;13.60;;;9.80;;
55312;SDS011;46892;45.668;11.756;2023-11-19T08:05:31;13.17;;;8.53;;
55312;SDS011;46892;45.668;11.756;2023-11-19T08:07:57;10.97;;;8.00;;
55312;SDS011;46892;45.668;11.756;2023-11-19T08:10:23;12.70;;;8.27;;
55312;SDS011;46892;45.668;11.756;2023-11-19T08:12:49;12.57;;;8.80;;
55312;SDS011;46892;45.668;11.756;2023-11-19T08:15:15;11.50;;;8.17;;
55312;SDS011;46892;45.668;11.756;2023-11-19T08:17:41;13.50;;;8.10;;
55312;SDS011;46892;45.668;11.756;2023-11-19T08:20:08;18.77;;;8.57;;
55312;SDS011;46892;45.668;11.756;2023-11-19T08:22:38;14.30;;;8.10;;
55312;SDS011;46892;45.668;11.756;2023-11-19T08:25:05;14.37;;;8.90;;
55312;SDS011;46892;45.668;11.756;2023-11-19T08:27:31;15.60;;;8.83;;
55312;SDS011;46892;45.668;11.756;2023-11-19T08:29:57;15.53;;;9.07;;
55312;SDS011;46892;45.668;11.756;2023-11-19T08:32:23;15.80;;;8.90;;
55312;SDS011;46892;45.668;11.756;2023-11-19T08:34:50;17.70;;;9.17;;
55312;SDS011;46892;45.668;11.756;2023-11-19T08:37:16;15.80;;;8.40;;
55312;SDS011;46892;45.668;11.756;2023-11-19T08:39:45;14.43;;;8.53;;
55312;SDS011;46892;45.668;11.756;2023-11-19T08:42:15;14.85;;;7.95;;
55312;SDS011;46892;45.668;11.756;2023-11-19T08:44:42;13.97;;;7.73;;
55312;SDS011;46892;45.668;11.756;2023-11-19T08:47:14;14.27;;;7.20;;
55312;SDS011;46892;45.668;11.756;2023-11-19T08:49:42;11.83;;;6.80;;
55312;SDS011;46892;45.668;11.756;2023-11-19T08:52:09;11.97;;;7.63;;
55312;SDS011;46892;45.668;11.756;2023-11-19T08:54:35;11.10;;;7.20;;
55312;SDS011;46892;45.668;11.756;2023-11-19T08:57:02;12.07;;;7.40;;
55312;SDS011;46892;45.668;11.756;2023-11-19T08:59:29;10.40;;;7.17;;
55312;SDS011;46892;45.668;11.756;2023-11-19T09:01:55;10.63;;;7.53;;
55312;SDS011;46892;45.668;11.756;2023-11-19T09:04:20;12.77;;;7.70;;
55312;SDS011;46892;45.668;11.756;2023-11-19T09:06:47;12.07;;;7.90;;
55312;SDS011;46892;45.668;11.756;2023-11-19T09:09:14;14.33;;;9.10;;
55312;SDS011;46892;45.668;11.756;2023-11-19T09:11:39;13.03;;;8.83;;
55312;SDS011;46892;45.668;11.756;2023-11-19T09:14:05;14.80;;;10.03;;
55312;SDS011;46892;45.668;11.756;2023-11-19T09:16:31;14.87;;;9.20;;
55312;SDS011;46892;45.668;11.756;2023-11-19T09:18:57;11.47;;;8.00;;
55312;SDS011;46892;45.668;11.756;2023-11-19T09:21:24;12.67;;;7.93;;
55312;SDS011;46892;45.668;11.756;2023-11-19T09:23:50;10.50;;;7.13;;
55312;SDS011;46892;45.668;11.756;2023-11-19T09:26:16;12.30;;;7.90;;
55312;SDS011;46892;45.668;11.756;2023-11-19T09:28:42;10.83;;;7.43;;
55312;SDS011;46892;45.668;11.756;2023-11-19T09:31:14;10.33;;;7.30;;
55312;SDS011;46892;45.668;11.756;2023-11-19T09:33:43;12.30;;;8.03;;
55312;SDS011;46892;45.668;11.756;2023-11-19T09:36:10;12.07;;;7.93;;
55312;SDS011;46892;45.668;11.756;2023-11-19T09:38:38;12.37;;;8.13;;
55312;SDS011;46892;45.668;11.756;2023-11-19T09:41:05;10.97;;;7.93;;
55312;SDS011;46892;45.668;11.756;2023-11-19T09:43:34;10.43;;;7.43;;
55312;SDS011;46892;45.668;11.756;2023-11-19T09:46:04;11.53;;;7.20;;
55312;SDS011;46892;45.668;11.756;2023-11-19T09:48:32;10.30;;;7.33;;
55312;SDS011;46892;45.668;11.756;2023-11-19T09:51:00;10.40;;;6.67;;
55312;SDS011;46892;45.668;11.756;2023-11-19T09:53:27;10.27;;;7.10;;
55312;SDS011;46892;45.668;11.756;2023-11-19T09:55:53;9.47;;;6.60;;
55312;SDS011;46892;45.668;11.756;2023-11-19T09:58:20;10.53;;;6.67;;
55312;SDS011;46892;45.668;11.756;2023-11-19T10:00:46;10.33;;;6.53;;
55312;SDS011;46892;45.668;11.756;2023-11-19T10:03:13;9.40;;;6.43;;
55312;SDS011;46892;45.668;11.756;2023-11-19T10:05:39;9.63;;;6.53;;
55312;SDS011;46892;45.668;11.756;2023-11-19T10:08:05;9.53;;;6.10;;
55312;SDS011;46892;45.668;11.756;2023-11-19T10:10:33;9.10;;;6.10;;
55312;SDS011;46892;45.668;11.756;2023-11-19T10:12:59;13.63;;;6.47;;
55312;SDS011;46892;45.668;11.756;2023-11-19T10:15:26;10.67;;;5.80;;
55312;SDS011;46892;45.668;11.756;2023-11-19T10:17:54;7.33;;;4.97;;
55312;SDS011;46892;45.668;11.756;2023-11-19T10:20:23;8.27;;;5.00;;
55312;SDS011;46892;45.668;11.756;2023-11-19T10:22:52;9.40;;;5.97;;
55312;SDS011;46892;45.668;11.756;2023-11-19T10:25:24;8.83;;;5.60;;
55312;SDS011;46892;45.668;11.756;2023-11-19T10:27:51;9.07;;;5.95;;
55312;SDS011;46892;45.668;11.756;2023-11-19T10:30:21;8.43;;;5.77;;
55312;SDS011;46892;45.668;11.756;2023-11-19T10:33:04;11.23;;;7.00;;
55312;SDS011;46892;45.668;11.756;2023-11-19T10:35:53;8.83;;;6.07;;
55312;SDS011;46892;45.668;11.756;2023-11-19T10:38:21;11.07;;;6.70;;
55312;SDS011;46892;45.668;11.756;2023-11-19T10:40:48;11.13;;;6.63;;
55312;SDS011;46892;45.668;11.756;2023-11-19T10:43:14;9.50;;;6.23;;
55312;SDS011;46892;45.668;11.756;2023-11-19T10:45:40;9.07;;;5.93;;
55312;SDS011;46892;45.668;11.756;2023-11-19T10:48:06;10.43;;;6.50;;
55312;SDS011;46892;45.668;11.756;2023-11-19T10:50:37;9.27;;;6.07;;
55312;SDS011;46892;45.668;11.756;2023-11-19T10:53:04;9.17;;;6.20;;
55312;SDS011;46892;45.668;11.756;2023-11-19T10:55:34;11.00;;;6.67;;
55312;SDS011;46892;45.668;11.756;2023-11-19T10:58:07;9.23;;;6.33;;
55312;SDS011;46892;45.668;11.756;2023-11-19T11:00:38;11.25;;;7.75;;
55312;SDS011;46892;45.668;11.756;2023-11-19T11:03:12;13.20;;;9.02;;
55312;SDS011;46892;45.668;11.756;2023-11-19T11:05:42;12.70;;;8.50;;
55312;SDS011;46892;45.668;11.756;2023-11-19T11:08:09;11.70;;;7.77;;
55312;SDS011;46892;45.668;11.756;2023-11-19T11:10:39;11.77;;;8.40;;
55312;SDS011;46892;45.668;11.756;2023-11-19T11:13:07;12.93;;;8.67;;
55312;SDS011;46892;45.668;11.756;2023-11-19T11:15:33;14.67;;;9.03;;
55312;SDS011;46892;45.668;11.756;2023-11-19T11:18:02;12.03;;;8.37;;
55312;SDS011;46892;45.668;11.756;2023-11-19T11:20:31;13.13;;;9.00;;
55312;SDS011;46892;45.668;11.756;2023-11-19T11:37:18;12.93;;;9.50;;
55312;SDS011;46892;45.668;11.756;2023-11-19T11:39:49;14.13;;;9.97;;
55312;SDS011;46892;45.668;11.756;2023-11-19T11:50:19;16.67;;;10.87;;
55312;SDS011;46892;45.668;11.756;2023-11-19T11:53:13;17.47;;;10.57;;
55312;SDS011;46892;45.668;11.756;2023-11-19T11:58:01;17.48;;;11.82;;
55312;SDS011;46892;45.668;11.756;2023-11-19T12:00:31;16.70;;;11.53;;
55312;SDS011;46892;45.668;11.756;2023-11-19T12:03:01;15.67;;;10.13;;
55312;SDS011;46892;45.668;11.756;2023-11-19T12:05:29;16.43;;;10.43;;
55312;SDS011;46892;45.668;11.756;2023-11-19T12:07:56;14.30;;;10.20;;
55312;SDS011;46892;45.668;11.756;2023-11-19T12:10:25;15.60;;;10.23;;
55312;SDS011;46892;45.668;11.756;2023-11-19T12:12:58;14.63;;;9.97;;
55312;SDS011;46892;45.668;11.756;2023-11-19T12:15:24;15.13;;;10.60;;
55312;SDS011;46892;45.668;11.756;2023-11-19T12:17:51;17.57;;;10.70;;
55312;SDS011;46892;45.668;11.756;2023-11-19T12:20:18;15.73;;;10.87;;
55312;SDS011;46892;45.668;11.756;2023-11-19T12:22:45;17.77;;;11.20;;
55312;SDS011;46892;45.668;11.756;2023-11-19T12:25:14;16.00;;;11.20;;
55312;SDS011;46892;45.668;11.756;2023-11-19T12:27:46;16.33;;;10.63;;
55312;SDS011;46892;45.668;11.756;2023-11-19T12:30:22;15.40;;;10.53;;
55312;SDS011;46892;45.668;11.756;2023-11-19T12:32:49;15.10;;;10.37;;
55312;SDS011;46892;45.668;11.756;2023-11-19T12:35:15;16.77;;;10.77;;
55312;SDS011;46892;45.668;11.756;2023-11-19T12:40:14;15.80;;;10.50;;
55312;SDS011;46892;45.668;11.756;2023-11-19T12:42:50;17.87;;;11.87;;
55312;SDS011;46892;45.668;11.756;2023-11-19T12:45:17;17.73;;;11.07;;
55312;SDS011;46892;45.668;11.756;2023-11-19T12:47:45;14.30;;;10.20;;
55312;SDS011;46892;45.668;11.756;2023-11-19T12:50:16;15.63;;;11.10;;
55312;SDS011;46892;45.668;11.756;2023-11-19T12:55:29;15.40;;;10.43;;
55312;SDS011;46892;45.668;11.756;2023-11-19T12:57:55;16.17;;;11.13;;
55312;SDS011;46892;45.668;11.756;2023-11-19T13:00:23;18.87;;;12.10;;
55312;SDS011;46892;45.668;11.756;2023-11-19T13:02:56;17.87;;;10.60;;
55312;SDS011;46892;45.668;11.756;2023-11-19T13:08:04;16.20;;;11.23;;
55312;SDS011;46892;45.668;11.756;2023-11-19T13:10:32;18.57;;;11.13;;
55312;SDS011;46892;45.668;11.756;2023-11-19T13:13:11;16.77;;;11.57;;
55312;SDS011;46892;45.668;11.756;2023-11-19T13:15:36;17.17;;;11.47;;
55312;SDS011;46892;45.668;11.756;2023-11-19T13:18:02;16.67;;;11.37;;
55312;SDS011;46892;45.668;11.756;2023-11-19T13:20:28;14.97;;;10.70;;
55312;SDS011;46892;45.668;11.756;2023-11-19T13:22:55;19.13;;;13.13;;
55312;SDS011;46892;45.668;11.756;2023-11-19T13:25:20;18.20;;;12.17;;
55312;SDS011;46892;45.668;11.756;2023-11-19T13:27:46;17.37;;;11.10;;
55312;SDS011;46892;45.668;11.756;2023-11-19T13:30:12;15.20;;;11.23;;
55312;SDS011;46892;45.668;11.756;2023-11-19T13:32:38;19.03;;;11.87;;
55312;SDS011;46892;45.668;11.756;2023-11-19T13:35:04;17.27;;;11.67;;
55312;SDS011;46892;45.668;11.756;2023-11-19T13:37:30;17.03;;;11.77;;
55312;SDS011;46892;45.668;11.756;2023-11-19T13:39:56;20.80;;;12.57;;
55312;SDS011;46892;45.668;11.756;2023-11-19T13:42:22;18.57;;;12.47;;
55312;SDS011;46892;45.668;11.756;2023-11-19T13:44:48;17.93;;;12.00;;
55312;SDS011;46892;45.668;11.756;2023-11-19T13:47:14;16.10;;;11.80;;
55312;SDS011;46892;45.668;11.756;2023-11-19T13:49:40;19.77;;;12.70;;
55312;SDS011;46892;45.668;11.756;2023-11-19T13:52:06;20.93;;;12.90;;
55312;SDS011;46892;45.668;11.756;2023-11-19T13:54:32;17.47;;;11.50;;
55312;SDS011;46892;45.668;11.756;2023-11-19T13:56:57;20.30;;;12.13;;
55312;SDS011;46892;45.668;11.756;2023-11-19T13:59:23;17.93;;;11.83;;
55312;SDS011;46892;45.668;11.756;2023-11-19T14:01:49;23.73;;;14.23;;
55312;SDS011;46892;45.668;11.756;2023-11-19T14:04:14;30.53;;;19.67;;
55312;SDS011;46892;45.668;11.756;2023-11-19T14:06:40;18.80;;;12.93;;
55312;SDS011;46892;45.668;11.756;2023-11-19T14:09:06;16.80;;;11.27;;
55312;SDS011;46892;45.668;11.756;2023-11-19T14:11:32;16.70;;;11.47;;
55312;SDS011;46892;45.668;11.756;2023-11-19T14:13:58;17.27;;;11.20;;
55312;SDS011;46892;45.668;11.756;2023-11-19T14:16:27;18.03;;;11.73;;
55312;SDS011;46892;45.668;11.756;2023-11-19T14:18:52;17.00;;;11.37;;
55312;SDS011;46892;45.668;11.756;2023-11-19T14:21:19;17.80;;;11.90;;
55312;SDS011;46892;45.668;11.756;2023-11-19T14:23:45;16.53;;;11.43;;
55312;SDS011;46892;45.668;11.756;2023-11-19T14:26:11;16.80;;;11.10;;
55312;SDS011;46892;45.668;11.756;2023-11-19T14:28:37;15.80;;;11.37;;
55312;SDS011;46892;45.668;11.756;2023-11-19T14:31:03;18.30;;;11.40;;
55312;SDS011;46892;45.668;11.756;2023-11-19T14:33:30;19.50;;;11.90;;
55312;SDS011;46892;45.668;11.756;2023-11-19T14:35:55;16.83;;;12.00;;
55312;SDS011;46892;45.668;11.756;2023-11-19T14:38:21;15.87;;;11.37;;
55312;SDS011;46892;45.668;11.756;2023-11-19T14:40:47;16.37;;;11.40;;
55312;SDS011;46892;45.668;11.756;2023-11-19T14:43:13;16.93;;;11.63;;
55312;SDS011;46892;45.668;11.756;2023-11-19T14:45:40;17.17;;;11.70;;
55312;SDS011;46892;45.668;11.756;2023-11-19T14:48:06;17.33;;;11.30;;
55312;SDS011;46892;45.668;11.756;2023-11-19T14:50:32;15.80;;;11.00;;
55312;SDS011;46892;45.668;11.756;2023-11-19T14:52:57;17.77;;;11.40;;
55312;SDS011;46892;45.668;11.756;2023-11-19T14:55:23;16.90;;;11.23;;